Time;durP1;ratioP1;P1;durP2;ratioP2;P2;SDS_P1;SDS_P2;PMS_P1;PMS_P2;Temp;Humidity;BMP_temperature;BMP_pressure;BME280_temperature;BME280_humidity;BME280_pressure;Samples;Min_cycle;Max_cycle;Signal;HPM_P1;HPM_P2
2023/10/31 00:00:18;;;;;;;;;;;;;;;;;;10455597;28;19931;-77
2023/10/31 00:05:19;;;;;;;;;;;;;;;;;;10463416;28;19943;-77
2023/10/31 00:10:19;;;;;;;;;;;;;;;;;;10456809;28;19981;-76
2023/10/31 00:15:19;;;;;;;;;;;;;;;;;;10468118;28;19925;-77
2023/10/31 00:20:20;;;;;;;;;;;;;;;;;;10459291;28;19921;-75
2023/10/31 00:25:20;;;;;;;;;;;;;;;;;;10456777;28;19967;-74
2023/10/31 00:30:22;;;;;;;;;;;;;;;;;;10460510;28;20221;-74
2023/10/31 00:35:23;;;;;;;;;;;;;;;;;;10464110;28;20480;-75
2023/10/31 00:40:23;;;;;;;;;;;;;;;;;;10452821;28;20445;-75
2023/10/31 00:45:23;;;;;;;;;;;;;;;;;;10464384;28;19999;-74
2023/10/31 00:50:24;;;;;;;;;;;;;;;;;;10466730;28;19924;-74
2023/10/31 00:55:24;;;;;;;;;;;;;;;;;;10439138;28;20400;-73
2023/10/31 01:00:25;;;;;;;;;;;;;;;;;;10450310;28;19954;-73
2023/10/31 01:05:26;;;;;;;;;;;;;;;;;;10436465;28;20032;-72
2023/10/31 01:10:26;;;;;;;;;;;;;;;;;;10443406;28;19932;-75
2023/10/31 01:15:27;;;;;;;;;;;;;;;;;;10453249;28;19931;-76
2023/10/31 01:20:27;;;;;;;;;;;;;;;;;;10439103;28;20332;-76
2023/10/31 01:25:27;;;;;;;;;;;;;;;;;;10441510;28;19940;-75
2023/10/31 01:30:27;;;;;;;;;;;;;;;;;;10473207;28;19985;-74
2023/10/31 01:35:27;;;;;;;;;;;;;;;;;;10476973;28;19925;-74
2023/10/31 01:40:28;;;;;;;;;;;;;;;;;;10472009;28;19930;-75
2023/10/31 01:45:28;;;;;;;;;;;;;;;;;;10475719;28;19956;-74
2023/10/31 01:50:28;;;;;;;;;;;;;;;;;;10463257;28;19920;-74
2023/10/31 01:55:29;;;;;;;;;;;;;;;;;;10469358;28;20735;-74
2023/10/31 02:00:29;;;;;;;;;;;;;;;;;;10467997;28;20000;-75
2023/10/31 02:05:32;;;;;;;;;;;;;;;;;;10468326;28;19927;-74
2023/10/31 02:10:32;;;;;;;;;;;;;;;;;;10479978;28;20029;-74
2023/10/31 02:15:32;;;;;;;;;;;;;;;;;;10447894;28;19929;-74
2023/10/31 02:20:33;;;;;;;;;;;;;;;;;;10476324;28;19927;-75
2023/10/31 02:25:33;;;;;;;;;;;;;;;;;;10466426;28;20237;-75
2023/10/31 02:30:33;;;;;;;;;;;;;;;;;;10474449;28;19951;-73
2023/10/31 02:35:34;;;;;;;;;;;;;;;;;;10465822;28;20635;-74
2023/10/31 02:40:34;;;;;;;;;;;;;;;;;;10449930;28;19998;-74
2023/10/31 02:45:34;;;;;;;;;;;;;;;;;;10475992;28;19966;-74
2023/10/31 02:50:35;;;;;;;;;;;;;;;;;;10450559;28;19967;-74
2023/10/31 02:55:35;;;;;;;;;;;;;;;;;;10446902;28;19929;-75
2023/10/31 03:00:35;;;;;;;;;;;;;;;;;;10457042;28;20323;-74
2023/10/31 03:05:35;;;;;;;;;;;;;;;;;;10454956;28;19946;-73
2023/10/31 03:10:35;;;;;;;;;;;;;;;;;;10439262;28;19932;-75
2023/10/31 03:15:36;;;;;;;;;;;;;;;;;;10458914;28;19940;-74
2023/10/31 03:20:36;;;;;;;;;;;;;;;;;;10473439;28;19920;-74
2023/10/31 03:25:36;;;;;;;;;;;;;;;;;;10487905;28;19925;-75
2023/10/31 03:30:36;;;;;;;;;;;;;;;;;;10483910;28;19974;-75
2023/10/31 03:35:37;;;;;;;;;;;;;;;;;;10505371;28;20542;-80
2023/10/31 03:40:37;;;;;;;;;;;;;;;;;;10499628;28;19920;-78
2023/10/31 03:45:37;;;;;;;;;;;;;;;;;;10486234;28;20016;-76
2023/10/31 03:50:37;;;;;;;;;;;;;;;;;;10478872;28;19970;-77
2023/10/31 03:55:38;;;;;;;;;;;;;;;;;;10480432;28;19925;-77
2023/10/31 04:00:38;;;;;;;;;;;;;;;;;;10501079;28;19938;-79
2023/10/31 04:05:38;;;;;;;;;;;;;;;;;;10501975;28;19930;-79
2023/10/31 04:10:39;;;;;;;;;;;;;;;;;;10503108;28;19935;-78
2023/10/31 04:15:39;;;;;;;;;;;;;;;;;;10500586;28;19968;-74
2023/10/31 04:20:40;;;;;;;;;;;;;;;;;;10499106;28;19925;-72
2023/10/31 04:25:40;;;;;;;;;;;;;;;;;;10471302;28;19928;-74
2023/10/31 04:30:40;;;;;;;;;;;;;;;;;;10454944;28;19928;-76
2023/10/31 04:35:41;;;;;;;;;;;;;;;;;;10470440;28;20378;-75
2023/10/31 04:40:41;;;;;;;;;;;;;;;;;;10474322;28;19924;-75
2023/10/31 04:45:42;;;;;;;;;;;;;;;;;;10478720;28;20604;-75
2023/10/31 04:50:42;;;;;;;;;;;;;;;;;;10475095;28;19928;-76
2023/10/31 04:55:42;;;;;;;;;;;;;;;;;;10480702;28;19920;-75
2023/10/31 05:00:43;;;;;;;;;;;;;;;;;;10476641;28;19924;-75
2023/10/31 05:05:43;;;;;;;;;;;;;;;;;;10477991;28;19930;-74
2023/10/31 05:10:44;;;;;;;;;;;;;;;;;;10476749;28;19982;-74
2023/10/31 05:15:45;;;;;;;;;;;;;;;;;;10475086;28;19978;-76
2023/10/31 05:20:45;;;;;;;;;;;;;;;;;;10475521;28;19963;-76
2023/10/31 05:25:45;;;;;;;;;;;;;;;;;;10475275;28;20387;-75
2023/10/31 05:30:46;;;;;;;;;;;;;;;;;;10478635;28;19951;-76
2023/10/31 05:35:46;;;;;;;;;;;;;;;;;;10480015;28;20014;-76
2023/10/31 05:40:46;;;;;;;;;;;;;;;;;;10478531;28;20018;-76
2023/10/31 05:45:46;;;;;;;;;;;;;;;;;;10475753;28;20550;-76
2023/10/31 05:50:47;;;;;;;;;;;;;;;;;;10471542;28;19978;-76
2023/10/31 05:55:47;;;;;;;;;;;;;;;;;;10471664;28;20034;-75
2023/10/31 06:00:47;;;;;;;;;;;;;;;;;;10464828;28;19947;-78
2023/10/31 06:05:47;;;;;;;;;;;;;;;;;;10470061;28;20011;-79
2023/10/31 06:10:47;;;;;;;;;;;;;;;;;;10472881;28;19928;-76
2023/10/31 06:15:48;;;;;;;;;;;;;;;;;;10464417;28;19931;-76
2023/10/31 06:20:48;;;;;;;;;;;;;;;;;;10465562;28;19927;-74
2023/10/31 06:25:48;;;;;;;;;;;;;;;;;;10450669;28;19925;-75
2023/10/31 06:30:52;;;;;;;;;;;;;;;;;;10460205;28;20414;-77
2023/10/31 06:35:53;;;;;;;;;;;;;;;;;;10467309;28;19921;-75
2023/10/31 06:40:54;;;;;;;;;;;;;;;;;;10469175;28;20814;-75
2023/10/31 06:45:54;;;;;;;;;;;;;;;;;;10443866;28;19921;-78
2023/10/31 06:50:54;;;;;;;;;;;;;;;;;;10467694;28;19947;-78
2023/10/31 06:55:54;;;;;;;;;;;;;;;;;;10447117;28;19947;-74
2023/10/31 07:00:58;;;;;;;;;;;;;;;;;;10451157;28;19928;-79
2023/10/31 07:05:59;;;;;;;;;;;;;;;;;;10469305;28;20015;-74
2023/10/31 07:10:59;;;;;;;;;;;;;;;;;;10452594;28;20013;-75
2023/10/31 07:15:59;;;;;;;;;;;;;;;;;;10461527;28;19939;-75
2023/10/31 07:21:00;;;;;;;;;;;;;;;;;;10463568;28;19948;-73
2023/10/31 07:26:00;;;;;;;;;;;;;;;;;;10468730;28;20004;-73
2023/10/31 07:31:00;;;;;;;;;;;;;;;;;;10466165;28;20002;-73
2023/10/31 07:36:01;;;;;;;;;;;;;;;;;;10467058;28;20035;-77
2023/10/31 07:41:01;;;;;;;;;;;;;;;;;;10497472;28;19920;-75
2023/10/31 07:46:01;;;;;;;;;;;;;;;;;;10502391;28;19920;-74
2023/10/31 07:51:01;;;;;;;;;;;;;;;;;;10495316;28;20030;-75
2023/10/31 07:56:02;;;;;;;;;;;;;;;;;;10504478;28;19920;-75
2023/10/31 08:01:02;;;;;;;;;;;;;;;;;;10505449;28;19927;-74
2023/10/31 08:06:02;;;;;;;;;;;;;;;;;;10493337;28;19928;-78
2023/10/31 08:11:03;;;;;;;;;;;;;;;;;;10503459;28;20642;-75
2023/10/31 08:16:04;;;;;;;;;;;;;;;;;;10499259;28;19921;-73
2023/10/31 08:21:04;;;;;;;;;;;;;;;;;;10499076;28;20528;-76
2023/10/31 08:26:04;;;;;;;;;;;;;;;;;;10520296;28;19924;-77
2023/10/31 08:31:04;;;;;;;;;;;;;;;;;;10508570;28;19928;-78
2023/10/31 08:36:06;;;;;;;;;;;;;;;;;;10493728;28;19928;-75
2023/10/31 08:41:06;;;;;;;;;;;;;;;;;;10496704;28;19920;-75
2023/10/31 08:46:06;;;;;;;;;;;;;;;;;;10505029;28;19943;-75
2023/10/31 08:51:07;;;;;;;;;;;;;;;;;;10493521;28;19935;-77
2023/10/31 08:56:07;;;;;;;;;;;;;;;;;;10497419;28;19943;-79
2023/10/31 09:01:07;;;;;;;;;;;;;;;;;;10477719;28;19921;-75
2023/10/31 09:06:08;;;;;;;;;;;;;;;;;;10500753;28;19920;-77
2023/10/31 09:11:08;;;;;;;;;;;;;;;;;;10503503;28;20896;-77
2023/10/31 09:16:08;;;;;;;;;;;;;;;;;;10493260;28;19927;-76
2023/10/31 09:21:08;;;;;;;;;;;;;;;;;;10496091;28;19931;-75
2023/10/31 09:26:09;;;;;;;;;;;;;;;;;;10505098;28;19924;-77
2023/10/31 09:31:09;;;;;;;;;;;;;;;;;;10497662;28;19934;-79
2023/10/31 09:36:09;;;;;;;;;;;;;;;;;;10504895;28;19928;-77
2023/10/31 09:41:10;;;;;;;;;;;;;;;;;;10491168;28;19925;-75
2023/10/31 09:46:10;;;;;;;;;;;;;;;;;;10489389;28;19935;-75
2023/10/31 09:51:13;;;;;;;;;;;;;;;;;;10501694;28;20315;-76
2023/10/31 09:56:13;;;;;;;;;;;;;;;;;;10497082;28;19982;-76
2023/10/31 10:01:14;;;;;;;;;;;;;;;;;;10478068;28;19938;-74
2023/10/31 10:06:15;;;;;;;;;;;;;;;;;;10499625;28;19924;-75
2023/10/31 10:11:15;;;;;;;;;;;;;;;;;;10497440;28;19943;-76
2023/10/31 10:16:15;;;;;;;;;;;;;;;;;;10496345;28;19928;-75
2023/10/31 10:21:17;;;;;;;;;;;;;;;;;;10505758;28;20643;-76
2023/10/31 10:26:20;;;;;;;;;;;;;;;;;;10494068;28;19924;-76
2023/10/31 10:31:21;;;;;;;;;;;;;;;;;;10507240;28;20018;-77
2023/10/31 10:36:21;;;;;;;;;;;;;;;;;;10488948;28;19920;-77
2023/10/31 10:41:21;;;;;;;;;;;;;;;;;;10485047;28;19951;-75
2023/10/31 10:46:22;;;;;;;;;;;;;;;;;;10502822;28;19926;-74
2023/10/31 10:51:23;;;;;;;;;;;;;;;;;;10486529;28;20039;-80
2023/10/31 10:56:23;;;;;;;;;;;;;;;;;;10463659;28;20540;-81
2023/10/31 11:01:23;;;;;;;;;;;;;;;;;;10514605;28;20536;-78
2023/10/31 11:06:23;;;;;;;;;;;;;;;;;;10510712;28;19931;-76
2023/10/31 11:11:24;;;;;;;;;;;;;;;;;;10509269;28;19928;-74
2023/10/31 11:16:24;;;;;;;;;;;;;;;;;;10512858;28;20768;-74
2023/10/31 11:21:24;;;;;;;;;;;;;;;;;;10489998;28;19920;-75
2023/10/31 11:26:25;;;;;;;;;;;;;;;;;;10501018;28;19932;-76
2023/10/31 11:31:25;;;;;;;;;;;;;;;;;;10496642;28;19932;-75
2023/10/31 11:36:25;;;;;;;;;;;;;;;;;;10510528;28;19927;-75
2023/10/31 11:41:26;;;;;;;;;;;;;;;;;;10493867;28;19928;-77
2023/10/31 11:46:26;;;;;;;;;;;;;;;;;;10498080;28;19921;-76
2023/10/31 11:51:26;;;;;;;;;;;;;;;;;;10477918;28;20050;-79
2023/10/31 11:56:27;;;;;;;;;;;;;;;;;;10502482;28;19966;-78
2023/10/31 12:01:27;;;;;;;;;;;;;;;;;;10498866;28;20011;-75
2023/10/31 12:06:27;;;;;;;;;;;;;;;;;;10489934;28;20468;-77
2023/10/31 12:11:28;;;;;;;;;;;;;;;;;;10481436;28;19983;-78
2023/10/31 12:16:28;;;;;;;;;;;;;;;;;;10493172;28;19935;-78
2023/10/31 12:21:28;;;;;;;;;;;;;;;;;;10474799;28;19970;-73
2023/10/31 12:26:28;;;;;;;;;;;;;;;;;;10500409;28;19924;-81
2023/10/31 12:31:30;;;;;;;;;;;;;;;;;;10481828;28;19924;-76
2023/10/31 12:36:30;;;;;;;;;;;;;;;;;;10502179;28;20011;-79
2023/10/31 12:41:30;;;;;;;;;;;;;;;;;;10508043;28;19924;-78
2023/10/31 12:46:31;;;;;;;;;;;;;;;;;;10504970;28;19928;-75
2023/10/31 12:51:31;;;;;;;;;;;;;;;;;;10519122;28;20384;-74
2023/10/31 12:56:32;;;;;;;;;;;;;;;;;;10491424;28;19958;-76
2023/10/31 13:01:33;;;;;;;;;;;;;;;;;;10506433;28;20009;-79
2023/10/31 13:06:34;;;;;;;;;;;;;;;;;;10479564;28;19920;-79
2023/10/31 13:11:34;;;;;;;;;;;;;;;;;;10492968;28;19924;-77
2023/10/31 13:16:35;;;;;;;;;;;;;;;;;;10500639;28;19934;-78
2023/10/31 13:21:35;;;;;;;;;;;;;;;;;;10495547;28;19993;-78
2023/10/31 13:26:35;;;;;;;;;;;;;;;;;;10449702;28;19924;-76
2023/10/31 13:31:35;;;;;;;;;;;;;;;;;;10477565;28;20447;-76
2023/10/31 13:36:37;;;;;;;;;;;;;;;;;;10476549;28;19924;-77
2023/10/31 13:41:37;;;;;;;;;;;;;;;;;;10473766;28;19927;-81
2023/10/31 13:46:37;;;;;;;;;;;;;;;;;;10480700;28;19921;-79
2023/10/31 13:51:37;;;;;;;;;;;;;;;;;;10473770;28;20342;-79
2023/10/31 13:56:38;;;;;;;;;;;;;;;;;;10471591;28;20439;-78
2023/10/31 14:01:38;;;;;;;;;;;;;;;;;;10476090;28;20284;-82
2023/10/31 14:06:38;;;;;;;;;;;;;;;;;;10461437;28;20593;-82
2023/10/31 14:11:38;;;;;;;;;;;;;;;;;;10462347;28;19932;-79
2023/10/31 14:16:39;;;;;;;;;;;;;;;;;;10472681;28;19943;-78
2023/10/31 14:21:39;;;;;;;;;;;;;;;;;;10449080;28;19971;-78
2023/10/31 14:26:40;;;;;;;;;;;;;;;;;;10454461;28;19931;-77
2023/10/31 14:31:41;;;;;;;;;;;;;;;;;;10474610;28;19955;-82
2023/10/31 14:36:41;;;;;;;;;;;;;;;;;;10474424;28;19931;-78
2023/10/31 14:41:42;;;;;;;;;;;;;;;;;;10473057;28;19927;-79
2023/10/31 14:46:43;;;;;;;;;;;;;;;;;;10456406;28;19932;-77
2023/10/31 14:51:43;;;;;;;;;;;;;;;;;;10474914;28;19928;-76
2023/10/31 14:56:43;;;;;;;;;;;;;;;;;;10441287;28;19924;-77
2023/10/31 15:01:43;;;;;;;;;;;;;;;;;;10473442;28;19935;-78
2023/10/31 15:06:44;;;;;;;;;;;;;;;;;;10469662;28;19930;-77
2023/10/31 15:11:44;;;;;;;;;;;;;;;;;;10463951;28;20479;-78
2023/10/31 15:16:44;;;;;;;;;;;;;;;;;;10468727;28;19920;-77
2023/10/31 15:21:44;;;;;;;;;;;;;;;;;;10470147;28;19920;-78
2023/10/31 15:26:45;;;;;;;;;;;;;;;;;;10486286;28;20399;-80
2023/10/31 15:31:47;;;;;;;;;;;;;;;;;;10481094;28;20002;-80
2023/10/31 15:36:48;;;;;;;;;;;;;;;;;;10510009;28;20030;-77
2023/10/31 15:41:48;;;;;;;;;;;;;;;;;;10502995;28;19919;-79
2023/10/31 15:46:49;;;;;;;;;;;;;;;;;;10513862;28;19920;-80
2023/10/31 15:51:49;;;;;;;;;;;;;;;;;;10484706;28;19974;-79
2023/10/31 15:56:49;;;;;;;;;;;;;;;;;;10483220;28;21000;-80
2023/10/31 16:01:49;;;;;;;;;;;;;;;;;;10490199;28;19932;-79
2023/10/31 16:06:50;;;;;;;;;;;;;;;;;;10505974;28;20023;-78
2023/10/31 16:11:50;;;;;;;;;;;;;;;;;;10482067;28;20049;-77
2023/10/31 16:16:50;;;;;;;;;;;;;;;;;;10504179;28;19924;-78
2023/10/31 16:21:50;;;;;;;;;;;;;;;;;;10500279;28;20051;-78
2023/10/31 16:26:51;;;;;;;;;;;;;;;;;;10509224;28;19930;-81
2023/10/31 16:31:52;;;;;;;;;;;;;;;;;;10499388;28;20048;-79
2023/10/31 16:36:52;;;;;;;;;;;;;;;;;;10496168;28;19935;-77
2023/10/31 16:41:53;;;;;;;;;;;;;;;;;;10508845;28;19924;-78
2023/10/31 16:46:53;;;;;;;;;;;;;;;;;;10493454;28;19924;-78
2023/10/31 16:51:54;;;;;;;;;;;;;;;;;;10472146;28;19928;-77
2023/10/31 16:56:54;;;;;;;;;;;;;;;;;;10497810;28;19926;-77
2023/10/31 17:01:54;;;;;;;;;;;;;;;;;;10472979;28;20453;-81
2023/10/31 17:06:54;;;;;;;;;;;;;;;;;;10462538;28;19920;-81
2023/10/31 17:11:55;;;;;;;;;;;;;;;;;;10474873;28;19942;-80
2023/10/31 17:16:55;;;;;;;;;;;;;;;;;;10474322;28;20364;-78
2023/10/31 17:21:55;;;;;;;;;;;;;;;;;;10481845;28;19920;-80
2023/10/31 17:26:56;;;;;;;;;;;;;;;;;;10470703;28;21073;-78
2023/10/31 17:31:56;;;;;;;;;;;;;;;;;;10455473;28;19929;-77
2023/10/31 17:36:58;;;;;;;;;;;;;;;;;;10458797;28;20073;-80
2023/10/31 17:41:58;;;;;;;;;;;;;;;;;;10453924;28;20048;-79
2023/10/31 17:46:58;;;;;;;;;;;;;;;;;;10464714;28;20133;-77
2023/10/31 17:52:01;;;;;;;;;;;;;;;;;;10459064;28;19939;-80
2023/10/31 17:57:01;;;;;;;;;;;;;;;;;;10462932;28;20376;-79
2023/10/31 18:02:02;;;;;;;;;;;;;;;;;;10444988;28;19921;-77
2023/10/31 18:07:02;;;;;;;;;;;;;;;;;;10428323;28;19974;-78
2023/10/31 18:12:02;;;;;;;;;;;;;;;;;;10459636;28;19951;-77
2023/10/31 18:17:03;;;;;;;;;;;;;;;;;;10413473;28;19924;-78
2023/10/31 18:22:03;;;;;;;;;;;;;;;;;;10434428;28;19956;-78
2023/10/31 18:27:03;;;;;;;;;;;;;;;;;;10469857;28;19943;-77
2023/10/31 18:32:03;;;;;;;;;;;;;;;;;;10456655;28;19934;-77
2023/10/31 18:37:04;;;;;;;;;;;;;;;;;;10469602;28;19931;-79
2023/10/31 18:42:04;;;;;;;;;;;;;;;;;;10466387;28;19916;-78
2023/10/31 18:47:04;;;;;;;;;;;;;;;;;;10469577;28;20411;-77
2023/10/31 18:52:04;;;;;;;;;;;;;;;;;;10459937;28;19928;-80
2023/10/31 18:57:04;;;;;;;;;;;;;;;;;;10444359;28;20089;-78
2023/10/31 19:02:05;;;;;;;;;;;;;;;;;;10460605;28;20119;-78
2023/10/31 19:07:05;;;;;;;;;;;;;;;;;;10462818;28;20016;-79
2023/10/31 19:12:05;;;;;;;;;;;;;;;;;;10438232;28;19940;-77
2023/10/31 19:17:08;;;;;;;;;;;;;;;;;;10468645;28;20434;-75
2023/10/31 19:22:11;;;;;;;;;;;;;;;;;;10470898;28;19948;-78
2023/10/31 19:27:12;;;;;;;;;;;;;;;;;;10482198;28;20676;-78
2023/10/31 19:32:13;;;;;;;;;;;;;;;;;;10472963;28;19928;-77
2023/10/31 19:37:13;;;;;;;;;;;;;;;;;;10493881;28;20629;-80
2023/10/31 19:42:13;;;;;;;;;;;;;;;;;;10510434;28;19974;-76
2023/10/31 19:47:14;;;;;;;;;;;;;;;;;;10501821;28;20622;-74
2023/10/31 19:52:14;;;;;;;;;;;;;;;;;;10480317;28;20800;-76
2023/10/31 19:57:16;;;;;;;;;;;;;;;;;;10473673;28;19928;-76
2023/10/31 20:02:17;;;;;;;;;;;;;;;;;;10498506;28;20011;-80
2023/10/31 20:07:17;;;;;;;;;;;;;;;;;;10499044;28;19924;-79
2023/10/31 20:12:17;;;;;;;;;;;;;;;;;;10478435;28;19928;-75
2023/10/31 20:17:17;;;;;;;;;;;;;;;;;;10500373;28;20640;-75
2023/10/31 20:22:18;;;;;;;;;;;;;;;;;;10495582;28;20399;-77
2023/10/31 20:27:19;;;;;;;;;;;;;;;;;;10484019;28;19924;-75
2023/10/31 20:32:19;;;;;;;;;;;;;;;;;;10467561;28;20270;-78
2023/10/31 20:37:19;;;;;;;;;;;;;;;;;;10471784;28;20007;-78
2023/10/31 20:42:20;;;;;;;;;;;;;;;;;;10470424;28;19920;-77
2023/10/31 20:47:20;;;;;;;;;;;;;;;;;;10470328;28;20770;-76
2023/10/31 20:52:20;;;;;;;;;;;;;;;;;;10472592;28;19928;-75
2023/10/31 20:57:20;;;;;;;;;;;;;;;;;;10469267;28;19978;-75
2023/10/31 21:02:21;;;;;;;;;;;;;;;;;;10469588;28;19921;-77
2023/10/31 21:07:21;;;;;;;;;;;;;;;;;;10467790;28;19928;-77
2023/10/31 21:12:21;;;;;;;;;;;;;;;;;;10472795;28;19930;-80
2023/10/31 21:17:22;;;;;;;;;;;;;;;;;;10469270;28;20418;-78
2023/10/31 21:22:22;;;;;;;;;;;;;;;;;;10482798;28;19920;-74
2023/10/31 21:27:22;;;;;;;;;;;;;;;;;;10492059;28;19924;-77
2023/10/31 21:32:22;;;;;;;;;;;;;;;;;;10512877;28;19963;-76
2023/10/31 21:37:23;;;;;;;;;;;;;;;;;;10488047;28;19962;-75
2023/10/31 21:42:23;;;;;;;;;;;;;;;;;;10498018;28;19927;-78
2023/10/31 21:47:24;;;;;;;;;;;;;;;;;;10509604;28;19945;-74
2023/10/31 21:52:24;;;;;;;;;;;;;;;;;;10481968;28;20233;-74
2023/10/31 21:57:24;;;;;;;;;;;;;;;;;;10479354;28;19920;-77
2023/10/31 22:02:25;;;;;;;;;;;;;;;;;;10492643;28;19938;-75
2023/10/31 22:07:25;;;;;;;;;;;;;;;;;;10497746;28;20327;-77
2023/10/31 22:12:25;;;;;;;;;;;;;;;;;;10486019;28;19929;-73
2023/10/31 22:17:25;;;;;;;;;;;;;;;;;;10477142;28;19928;-74
2023/10/31 22:22:26;;;;;;;;;;;;;;;;;;10490752;28;20330;-74
2023/10/31 22:27:26;;;;;;;;;;;;;;;;;;10504238;28;19925;-76
2023/10/31 22:32:27;;;;;;;;;;;;;;;;;;10487983;28;19936;-74
2023/10/31 22:37:27;;;;;;;;;;;;;;;;;;10494253;28;19928;-75
2023/10/31 22:42:27;;;;;;;;;;;;;;;;;;10486112;28;20489;-75
2023/10/31 22:47:28;;;;;;;;;;;;;;;;;;10495086;28;19920;-77
2023/10/31 22:52:28;;;;;;;;;;;;;;;;;;10501332;28;20372;-77
2023/10/31 22:57:28;;;;;;;;;;;;;;;;;;10492156;28;20054;-74
2023/10/31 23:02:29;;;;;;;;;;;;;;;;;;10493508;28;19927;-75
2023/10/31 23:07:29;;;;;;;;;;;;;;;;;;10491915;28;19947;-76
2023/10/31 23:12:30;;;;;;;;;;;;;;;;;;10509742;28;19931;-76
2023/10/31 23:17:30;;;;;;;;;;;;;;;;;;10487027;28;19920;-77
2023/10/31 23:22:30;;;;;;;;;;;;;;;;;;10487301;28;20285;-74
2023/10/31 23:27:34;;;;;;;;;;;;;;;;;;10506561;28;19924;-74
2023/10/31 23:32:34;;;;;;;;;;;;;;;;;;10486572;28;20419;-74
2023/10/31 23:37:34;;;;;;;;;;;;;;;;;;10470403;28;19935;-78
2023/10/31 23:42:34;;;;;;;;;;;;;;;;;;10517815;28;19920;-74
2023/10/31 23:47:35;;;;;;;;;;;;;;;;;;10485036;28;20292;-74
2023/10/31 23:52:35;;;;;;;;;;;;;;;;;;10507825;28;19931;-75
2023/10/31 23:57:35;;;;;;;;;;;;;;;;;;10481825;28;19936;-78
